Terminal Aerodrome Forecast
Issued by NWS

Home | Current Version | Previous Version | Text Only | Print | Product List | Glossary On
Versions: 1 2 3 4 5 6 7 8 9 10 11 12 13 14 15 16 17 18 19 20 21 22 23 24 25 26 27 28 29 30 31 32 33 34 35 36 37 38 39 40
000
FTAK31 PANC 150542
TAFACD
TAF
PACD 150542Z 1506/1606 12025G35KT P6SM -RA SCT007 OVC030
     FM151200 22018G25KT 3SM -SHRA BR FEW015 BKN025 OVC035
     FM151500 21015G30KT 6SM -SHRA SCT025 BKN035
     FM151800 21020G35KT P6SM -SHRASN OVC035=

USA.gov is the U.S. government's official web portal to all federal, state and local government web resources and services.